createdAt,value
2023-05-22T00:01:46.688Z,88.75
2023-05-22T00:04:21.192Z,89.62
2023-05-22T00:06:50.598Z,89.11
2023-05-22T00:09:19.063Z,89.38
2023-05-22T00:11:46.928Z,90.25
2023-05-22T00:14:14.688Z,90.49
2023-05-22T00:16:42.862Z,90.29
2023-05-22T00:19:13.427Z,90.88
2023-05-22T00:21:41.526Z,90.46
2023-05-22T00:24:10.662Z,90.30
2023-05-22T00:26:38.706Z,90.57
2023-05-22T00:29:06.799Z,90.26
2023-05-22T00:31:34.742Z,90.25
2023-05-22T00:34:02.643Z,90.23
2023-05-22T00:36:30.485Z,90.28
2023-05-22T00:38:58.443Z,90.04
2023-05-22T00:41:27.788Z,89.73
2023-05-22T00:43:55.686Z,90.60
2023-05-22T00:46:24.642Z,90.48
2023-05-22T00:48:53.433Z,90.82
2023-05-22T00:51:22.622Z,90.62
2023-05-22T00:53:51.282Z,91.21
2023-05-22T00:56:21.015Z,90.64
2023-05-22T00:58:50.179Z,90.57
2023-05-22T01:01:18.246Z,90.28
2023-05-22T01:03:47.206Z,90.38
2023-05-22T01:06:18.623Z,91.04
2023-05-22T01:08:46.486Z,90.95
2023-05-22T01:11:19.055Z,91.29
2023-05-22T01:13:54.781Z,90.76
2023-05-22T01:16:33.418Z,90.41
2023-05-22T01:19:06.327Z,90.61
2023-05-22T01:21:40.519Z,90.20
2023-05-22T01:24:43.393Z,90.61
2023-05-22T01:27:43.862Z,90.45
2023-05-22T01:30:26.735Z,91.23
2023-05-22T01:32:59.168Z,91.65
2023-05-22T01:35:28.605Z,91.88
2023-05-22T01:37:58.227Z,91.79
2023-05-22T01:40:26.883Z,92.33
2023-05-22T01:42:54.969Z,92.35
2023-05-22T01:45:23.041Z,92.08
2023-05-22T01:47:50.992Z,91.55
2023-05-22T01:50:21.143Z,91.84
2023-05-22T01:52:59.973Z,91.99
2023-05-22T01:55:35.429Z,92.49
2023-05-22T01:58:17.523Z,93.31
2023-05-22T02:00:48.058Z,93.20
2023-05-22T02:03:23.083Z,93.14
2023-05-22T02:05:55.352Z,92.97
2023-05-22T02:08:24.929Z,93.72
2023-05-22T02:10:55.906Z,93.25
2023-05-22T02:13:24.387Z,93.42
2023-05-22T02:15:52.685Z,93.96
2023-05-22T02:18:20.797Z,94.60
2023-05-22T02:20:48.582Z,94.29
2023-05-22T02:23:17.753Z,94.54
2023-05-22T02:25:45.659Z,94.27
2023-05-22T02:28:13.444Z,93.69
2023-05-22T02:30:41.412Z,94.37
2023-05-22T02:33:09.426Z,94.42
2023-05-22T02:35:37.439Z,94.73
2023-05-22T02:38:05.435Z,94.30
2023-05-22T02:40:34.602Z,94.13
2023-05-22T02:43:02.578Z,94.17
2023-05-22T02:45:30.435Z,94.38
2023-05-22T02:47:58.372Z,93.99
2023-05-22T02:50:26.273Z,93.81
2023-05-22T02:52:54.040Z,93.34
2023-05-22T02:55:22.725Z,93.40
2023-05-22T02:57:51.840Z,93.81
2023-05-22T03:00:22.552Z,93.71
2023-05-22T03:02:50.376Z,93.94
2023-05-22T03:05:18.784Z,93.92
2023-05-22T03:07:49.343Z,93.85
2023-05-22T03:10:17.259Z,94.00
2023-05-22T03:12:44.999Z,93.59
2023-05-22T03:15:14.148Z,93.34
2023-05-22T03:17:41.978Z,92.89
2023-05-22T03:20:10.763Z,92.98
2023-05-22T03:22:38.517Z,92.88
2023-05-22T03:25:09.398Z,92.96
2023-05-22T03:27:37.341Z,93.39
2023-05-22T03:30:06.100Z,93.48
2023-05-22T03:32:37.328Z,93.68
2023-05-22T03:35:06.332Z,93.29
2023-05-22T03:37:34.091Z,92.91
2023-05-22T03:40:03.825Z,92.71
2023-05-22T03:42:31.608Z,92.84
2023-05-22T03:44:59.342Z,94.00
2023-05-22T03:47:27.213Z,92.78
2023-05-22T03:49:56.464Z,93.19
2023-05-22T03:52:24.438Z,92.58
2023-05-22T03:54:53.500Z,92.47
2023-05-22T03:57:21.372Z,92.81
2023-05-22T03:59:49.362Z,93.25
2023-05-22T04:02:17.811Z,92.77
2023-05-22T04:04:47.052Z,92.52
2023-05-22T04:07:18.411Z,92.47
2023-05-22T04:09:46.328Z,92.76
2023-05-22T04:12:16.768Z,92.34
2023-05-22T04:14:44.558Z,92.43
2023-05-22T04:17:12.782Z,92.70
2023-05-22T04:19:40.500Z,92.61
2023-05-22T04:22:09.681Z,92.27
2023-05-22T04:24:39.769Z,92.76
2023-05-22T04:27:07.955Z,92.70
2023-05-22T04:29:41.518Z,92.73
2023-05-22T04:32:10.553Z,92.44
2023-05-22T04:34:38.647Z,92.32
2023-05-22T04:37:06.865Z,93.03
2023-05-22T04:39:35.076Z,92.73
2023-05-22T04:42:05.918Z,93.36
2023-05-22T04:44:34.560Z,93.47
2023-05-22T04:47:05.997Z,93.73
2023-05-22T04:49:35.494Z,94.00
2023-05-22T04:52:04.853Z,93.32
2023-05-22T04:54:32.716Z,93.57
2023-05-22T04:57:00.557Z,94.50
2023-05-22T04:59:29.598Z,93.98
2023-05-22T05:01:57.328Z,94.72
2023-05-22T05:04:25.118Z,94.37
2023-05-22T05:06:53.606Z,93.93
2023-05-22T05:09:21.303Z,93.65
2023-05-22T05:11:49.345Z,94.21
2023-05-22T05:14:17.792Z,94.59
2023-05-22T05:16:47.593Z,94.64
2023-05-22T05:19:16.611Z,94.87
2023-05-22T05:21:44.470Z,93.60
2023-05-22T05:24:13.072Z,94.00
2023-05-22T05:26:40.849Z,94.76
2023-05-22T05:29:08.606Z,94.11
2023-05-22T05:31:38.588Z,93.16
2023-05-22T05:34:07.886Z,93.68
2023-05-22T05:36:35.704Z,93.51
2023-05-22T05:39:03.694Z,93.96
2023-05-22T05:41:31.456Z,93.52
2023-05-22T05:44:00.098Z,93.84
2023-05-22T05:46:28.126Z,93.77
2023-05-22T05:48:55.847Z,95.20
2023-05-22T05:51:24.978Z,93.24
2023-05-22T05:53:52.845Z,92.79
2023-05-22T05:56:21.218Z,93.06
2023-05-22T05:58:48.985Z,93.01
2023-05-22T06:01:18.260Z,92.70
2023-05-22T06:03:46.202Z,92.76
2023-05-22T06:06:14.144Z,93.51
2023-05-22T06:08:43.245Z,92.72
2023-05-22T06:11:11.172Z,93.18
2023-05-22T06:13:38.944Z,92.31
2023-05-22T06:16:07.157Z,92.41
2023-05-22T06:18:35.231Z,92.35
2023-05-22T06:21:03.053Z,92.24
2023-05-22T06:23:30.902Z,92.44
2023-05-22T06:26:00.073Z,92.70
2023-05-22T06:28:27.780Z,93.06
2023-05-22T06:30:57.126Z,92.82
2023-05-22T06:33:26.499Z,92.06
2023-05-22T06:35:55.513Z,92.48
2023-05-22T06:38:23.382Z,92.10
2023-05-22T06:40:51.404Z,92.56
2023-05-22T06:43:20.785Z,91.65
2023-05-22T06:45:48.497Z,91.15
2023-05-22T06:48:16.828Z,90.73
2023-05-22T06:50:44.568Z,89.66
2023-05-22T06:53:12.677Z,89.46
2023-05-22T06:55:40.575Z,89.35
2023-05-22T06:58:08.617Z,89.11
2023-05-22T07:00:37.889Z,88.97
2023-05-22T07:03:06.775Z,89.10
2023-05-22T07:05:34.636Z,89.78
2023-05-22T07:08:02.801Z,90.02
2023-05-22T07:10:30.680Z,90.25
2023-05-22T07:12:58.877Z,90.44
2023-05-22T07:15:26.624Z,90.81
2023-05-22T07:17:55.831Z,90.39
2023-05-22T07:20:25.540Z,89.61
2023-05-22T07:22:53.507Z,88.39
2023-05-22T07:25:21.227Z,87.76
2023-05-22T07:27:49.076Z,88.92
2023-05-22T07:30:17.171Z,88.52
2023-05-22T07:32:46.259Z,88.95
2023-05-22T07:35:15.714Z,89.02
2023-05-22T07:37:43.413Z,88.75
2023-05-22T07:40:12.348Z,88.90
2023-05-22T07:42:40.099Z,87.98
2023-05-22T07:45:08.463Z,88.10
2023-05-22T07:47:36.231Z,88.05
2023-05-22T07:50:06.001Z,88.86
2023-05-22T07:52:35.263Z,88.32
2023-05-22T07:55:02.987Z,87.16
2023-05-22T07:57:30.764Z,86.51
2023-05-22T07:59:59.197Z,87.78
2023-05-22T08:02:27.105Z,87.20
2023-05-22T08:04:54.968Z,87.51
2023-05-22T08:07:22.774Z,86.98
2023-05-22T08:09:51.854Z,87.40
2023-05-22T08:12:19.625Z,86.56
2023-05-22T08:14:47.307Z,86.04
2023-05-22T08:17:15.245Z,85.62
2023-05-22T08:19:43.147Z,85.21
2023-05-22T08:22:10.950Z,85.21
2023-05-22T08:24:38.700Z,84.88
2023-05-22T08:27:08.244Z,84.49
2023-05-22T08:29:36.163Z,83.64
2023-05-22T08:32:04.132Z,82.89
2023-05-22T08:34:32.999Z,84.65
2023-05-22T08:37:00.747Z,82.04
2023-05-22T08:39:29.048Z,82.10
2023-05-22T08:41:57.084Z,81.59
2023-05-22T08:44:26.276Z,81.24
2023-05-22T08:46:56.701Z,82.19
2023-05-22T08:49:25.801Z,81.51
2023-05-22T08:51:57.352Z,82.06
2023-05-22T08:54:27.797Z,80.78
2023-05-22T08:56:57.252Z,79.37
2023-05-22T08:59:26.837Z,78.72
2023-05-22T09:01:55.156Z,79.24
2023-05-22T09:04:24.177Z,79.00
2023-05-22T09:06:52.663Z,80.08
2023-05-22T09:09:20.448Z,79.88
2023-05-22T09:11:48.245Z,79.29
2023-05-22T09:14:16.262Z,79.83
2023-05-22T09:16:49.545Z,80.10
2023-05-22T09:19:17.675Z,79.26
2023-05-22T09:21:45.712Z,77.14
2023-05-22T09:24:13.536Z,78.02
2023-05-22T09:26:41.723Z,79.00
2023-05-22T09:29:10.562Z,78.17
2023-05-22T09:31:45.335Z,77.69
2023-05-22T09:34:15.438Z,76.36
2023-05-22T09:36:43.411Z,75.08
2023-05-22T09:39:11.444Z,73.82
2023-05-22T09:41:40.908Z,73.61
2023-05-22T09:44:13.742Z,74.19
2023-05-22T09:46:42.493Z,73.36
2023-05-22T09:49:11.071Z,75.32
2023-05-22T09:51:43.229Z,75.74
2023-05-22T09:54:13.227Z,75.49
2023-05-22T09:56:42.990Z,75.13
2023-05-22T09:59:13.991Z,72.15
2023-05-22T10:01:42.539Z,71.62
2023-05-22T10:04:15.904Z,69.15
2023-05-22T10:06:52.209Z,68.21
2023-05-22T10:09:22.851Z,69.53
2023-05-22T10:11:55.554Z,69.45
2023-05-22T10:14:24.919Z,70.28
2023-05-22T10:16:54.537Z,71.05
2023-05-22T10:19:26.844Z,70.83
2023-05-22T10:21:57.415Z,70.63
2023-05-22T10:24:26.014Z,71.47
2023-05-22T10:26:57.128Z,68.41
2023-05-22T10:29:29.574Z,69.29
2023-05-22T10:32:07.558Z,69.39
2023-05-22T10:34:42.029Z,69.33
2023-05-22T10:37:37.772Z,69.69
2023-05-22T10:40:10.504Z,67.72
2023-05-22T10:42:39.143Z,69.15
2023-05-22T10:45:08.950Z,66.65
2023-05-22T10:47:37.552Z,66.30
2023-05-22T10:50:09.152Z,66.45
2023-05-22T10:52:39.636Z,67.19
2023-05-22T10:55:09.127Z,65.19
2023-05-22T10:57:39.258Z,65.23
2023-05-22T11:00:09.787Z,64.77
2023-05-22T11:02:40.633Z,65.52
2023-05-22T11:05:37.426Z,64.63
2023-05-22T11:08:46.792Z,62.96
2023-05-22T11:11:17.027Z,65.71
2023-05-22T11:13:44.988Z,66.09
2023-05-22T11:16:13.878Z,65.33
2023-05-22T11:18:41.841Z,65.83
2023-05-22T11:21:13.749Z,64.95
2023-05-22T11:23:42.625Z,64.99
2023-05-22T11:26:26.449Z,61.77
2023-05-22T11:28:56.345Z,63.03
2023-05-22T11:31:26.824Z,64.58
2023-05-22T11:33:54.966Z,61.77
2023-05-22T11:36:24.357Z,62.44
2023-05-22T11:38:52.404Z,62.45
2023-05-22T11:41:21.350Z,63.25
2023-05-22T11:43:50.972Z,60.12
2023-05-22T11:46:37.789Z,59.98
2023-05-22T11:49:10.282Z,60.33
2023-05-22T11:51:40.237Z,59.42
2023-05-22T11:54:08.700Z,59.91
2023-05-22T11:56:36.490Z,58.60
2023-05-22T11:59:05.647Z,57.09
2023-05-22T12:01:33.584Z,58.64
2023-05-22T12:04:01.512Z,57.29
2023-05-22T12:06:33.171Z,56.36
2023-05-22T12:09:01.887Z,56.87
2023-05-22T12:11:29.699Z,55.94
2023-05-22T12:14:12.597Z,55.31
2023-05-22T12:16:41.133Z,56.26
2023-05-22T12:19:09.706Z,55.39
2023-05-22T12:21:39.213Z,54.88
2023-05-22T12:24:07.532Z,54.15
2023-05-22T12:26:35.625Z,52.92
2023-05-22T12:29:04.722Z,51.50
2023-05-22T12:31:38.509Z,50.96
2023-05-22T12:34:08.721Z,50.22
2023-05-22T12:36:39.927Z,50.32
2023-05-22T12:39:12.063Z,50.84
2023-05-22T12:41:40.060Z,50.11
2023-05-22T12:44:09.139Z,50.21
2023-05-22T12:46:39.311Z,48.77
2023-05-22T12:49:07.244Z,48.98
2023-05-22T12:51:35.673Z,48.72
2023-05-22T12:54:04.686Z,49.69
2023-05-22T12:56:33.268Z,49.43
2023-05-22T12:59:01.095Z,49.03
2023-05-22T13:01:29.049Z,50.16
2023-05-22T13:03:58.209Z,50.45
2023-05-22T13:06:27.994Z,50.84
2023-05-22T13:09:00.926Z,51.25
2023-05-22T13:11:29.473Z,50.82
2023-05-22T13:13:57.241Z,52.08
2023-05-22T13:16:25.293Z,51.94
2023-05-22T13:18:54.024Z,53.50
2023-05-22T13:21:25.206Z,53.93
2023-05-22T13:23:54.447Z,54.57
2023-05-22T13:26:22.863Z,55.18
2023-05-22T13:28:51.701Z,55.95
2023-05-22T13:31:19.878Z,56.31
2023-05-22T13:33:48.171Z,56.92
2023-05-22T13:36:16.670Z,56.70
2023-05-22T13:38:46.086Z,56.73
2023-05-22T13:41:15.439Z,56.71
2023-05-22T13:43:43.672Z,55.12
2023-05-22T13:46:11.686Z,55.77
2023-05-22T13:48:40.086Z,56.07
2023-05-22T13:51:07.854Z,56.80
2023-05-22T13:53:37.081Z,57.63
2023-05-22T13:56:06.896Z,58.82
2023-05-22T13:58:35.024Z,59.03
2023-05-22T14:01:03.055Z,59.46
2023-05-22T14:03:30.965Z,58.26
2023-05-22T14:05:58.709Z,56.83
2023-05-22T14:08:26.702Z,56.26
2023-05-22T14:10:54.977Z,56.83
2023-05-22T14:13:24.188Z,54.91
2023-05-22T14:15:51.902Z,55.23
2023-05-22T14:18:19.799Z,55.12
2023-05-22T14:20:48.006Z,56.30
2023-05-22T14:23:16.236Z,57.21
2023-05-22T14:25:44.326Z,58.51
2023-05-22T14:28:12.361Z,58.74
2023-05-22T14:30:41.630Z,58.65
2023-05-22T14:33:09.718Z,59.45
2023-05-22T14:35:37.431Z,60.76
2023-05-22T14:38:05.386Z,60.27
2023-05-22T14:40:33.140Z,61.99
2023-05-22T14:43:00.970Z,62.91
2023-05-22T14:45:28.736Z,63.21
2023-05-22T14:47:57.858Z,63.71
2023-05-22T14:50:25.592Z,64.23
2023-05-22T14:52:53.336Z,65.02
2023-05-22T14:55:21.872Z,65.43
2023-05-22T14:57:49.729Z,65.20
2023-05-22T15:00:18.473Z,66.07
2023-05-22T15:02:46.608Z,66.62
2023-05-22T15:05:17.378Z,67.12
2023-05-22T15:07:47.205Z,67.33
2023-05-22T15:10:16.208Z,67.86
2023-05-22T15:12:44.069Z,68.69
2023-05-22T15:15:12.507Z,69.02
2023-05-22T15:17:42.545Z,70.08
2023-05-22T15:20:11.733Z,70.32
2023-05-22T15:22:43.556Z,70.99
2023-05-22T15:25:15.075Z,71.45
2023-05-22T15:27:43.438Z,72.21
2023-05-22T15:30:12.147Z,72.37
2023-05-22T15:32:40.237Z,73.09
2023-05-22T15:35:09.228Z,73.23
2023-05-22T15:37:37.381Z,73.42
2023-05-22T15:40:09.638Z,73.67
2023-05-22T15:42:37.856Z,74.17
2023-05-22T15:45:06.683Z,74.65
2023-05-22T15:47:34.495Z,74.83
2023-05-22T15:50:03.999Z,76.10
2023-05-22T15:52:31.808Z,76.81
2023-05-22T15:54:59.842Z,71.29
2023-05-22T15:57:29.224Z,72.07
2023-05-22T15:59:57.387Z,79.94
2023-05-22T16:02:25.477Z,80.61
2023-05-22T16:04:54.540Z,81.30
2023-05-22T16:07:22.455Z,81.08
2023-05-22T16:09:51.173Z,84.64
2023-05-22T16:12:19.552Z,84.82
2023-05-22T16:14:49.599Z,85.53
2023-05-22T16:17:17.709Z,86.32
2023-05-22T16:19:45.932Z,86.05
2023-05-22T16:22:14.147Z,84.97
2023-05-22T16:24:42.017Z,86.32
2023-05-22T16:27:10.083Z,89.60
2023-05-22T16:29:37.894Z,93.21
2023-05-22T16:32:08.284Z,95.55
2023-05-22T16:34:36.510Z,97.36
2023-05-22T16:37:04.434Z,98.57
2023-05-22T16:39:32.266Z,100.00
2023-05-22T16:42:01.433Z,100.00
2023-05-22T16:44:29.148Z,100.00
2023-05-22T16:46:56.824Z,100.00
2023-05-22T16:49:27.146Z,100.00
2023-05-22T16:51:55.155Z,100.00
2023-05-22T16:54:22.914Z,100.00
2023-05-22T16:56:50.715Z,100.00
2023-05-22T16:59:19.507Z,100.00
2023-05-22T17:01:47.698Z,100.00
2023-05-22T17:04:19.182Z,100.00
2023-05-22T17:06:49.130Z,100.00
2023-05-22T17:09:17.276Z,100.00
2023-05-22T17:11:44.989Z,100.00
2023-05-22T17:14:12.868Z,100.00
2023-05-22T17:16:40.808Z,100.00
2023-05-22T17:19:09.874Z,100.00
2023-05-22T17:21:38.005Z,100.00
2023-05-22T17:24:11.542Z,100.00
2023-05-22T17:26:40.654Z,100.00
2023-05-22T17:29:09.352Z,100.00
2023-05-22T17:31:39.421Z,100.00
2023-05-22T17:34:07.959Z,100.00
2023-05-22T17:36:36.176Z,100.00
2023-05-22T17:39:04.226Z,100.00
2023-05-22T17:41:33.497Z,100.00
2023-05-22T17:44:04.972Z,100.00
2023-05-22T17:46:33.046Z,100.00
2023-05-22T17:49:00.987Z,100.00
2023-05-22T17:51:29.156Z,100.00
2023-05-22T17:53:59.039Z,100.00
2023-05-22T17:56:27.749Z,100.00
2023-05-22T17:58:57.600Z,100.00
2023-05-22T18:01:27.276Z,100.00
2023-05-22T18:03:55.379Z,100.00
2023-05-22T18:06:24.483Z,100.00
2023-05-22T18:08:52.430Z,100.00
2023-05-22T18:11:21.316Z,100.00
2023-05-22T18:13:49.357Z,100.00
2023-05-22T18:16:19.933Z,100.00
2023-05-22T18:18:48.458Z,100.00
2023-05-22T18:21:16.476Z,100.00
2023-05-22T18:23:44.372Z,100.00
2023-05-22T18:26:12.375Z,100.00
2023-05-22T18:28:41.611Z,100.00
2023-05-22T18:31:09.641Z,100.00
2023-05-22T18:33:41.106Z,100.00
2023-05-22T18:36:08.993Z,100.00
2023-05-22T18:38:37.198Z,100.00
2023-05-22T18:41:05.315Z,100.00
2023-05-22T18:43:33.591Z,100.00
2023-05-22T18:46:01.522Z,100.00
2023-05-22T18:48:31.028Z,100.00
2023-05-22T18:51:00.715Z,100.00
2023-05-22T18:53:28.741Z,100.00
2023-05-22T18:55:56.741Z,100.00
2023-05-22T18:58:25.630Z,100.00
2023-05-22T19:00:56.841Z,100.00
2023-05-22T19:03:25.213Z,100.00
2023-05-22T19:05:53.348Z,100.00
2023-05-22T19:08:25.005Z,100.00
2023-05-22T19:10:53.021Z,100.00
2023-05-22T19:13:21.006Z,100.00
2023-05-22T19:15:48.778Z,100.00
2023-05-22T19:18:17.138Z,100.00
2023-05-22T19:20:45.131Z,100.00
2023-05-22T19:23:13.757Z,100.00
2023-05-22T19:25:43.077Z,100.00
2023-05-22T19:28:11.272Z,100.00
2023-05-22T19:30:39.446Z,100.00
2023-05-22T19:33:09.051Z,100.00
2023-05-22T19:35:37.949Z,100.00
2023-05-22T19:38:06.079Z,100.00
2023-05-22T19:40:33.933Z,100.00
2023-05-22T19:43:03.526Z,100.00
2023-05-22T19:45:31.649Z,100.00
2023-05-22T19:47:59.514Z,100.00
2023-05-22T19:50:27.417Z,100.00
2023-05-22T19:52:55.454Z,100.00
2023-05-22T19:55:23.624Z,100.00
2023-05-22T19:57:51.697Z,100.00
2023-05-22T20:00:22.737Z,100.00
2023-05-22T20:02:51.527Z,100.00
2023-05-22T20:05:19.507Z,100.00
2023-05-22T20:07:48.522Z,100.00
2023-05-22T20:10:16.810Z,100.00
2023-05-22T20:12:44.557Z,100.00
2023-05-22T20:15:15.007Z,100.00
2023-05-22T20:17:47.606Z,100.00
2023-05-22T20:20:15.777Z,100.00
2023-05-22T20:22:44.279Z,100.00
2023-05-22T20:25:12.427Z,100.00
2023-05-22T20:27:40.617Z,100.00
2023-05-22T20:30:11.537Z,100.00
2023-05-22T20:32:40.395Z,100.00
2023-05-22T20:35:11.016Z,100.00
2023-05-22T20:37:41.657Z,100.00
2023-05-22T20:40:10.527Z,100.00
2023-05-22T20:42:38.564Z,100.00
2023-05-22T20:45:07.719Z,100.00
2023-05-22T20:47:35.756Z,100.00
2023-05-22T20:50:03.575Z,100.00
2023-05-22T20:52:34.468Z,100.00
2023-05-22T20:55:02.820Z,100.00
2023-05-22T20:57:32.314Z,100.00
2023-05-22T21:00:02.386Z,100.00
2023-05-22T21:02:30.177Z,100.00
2023-05-22T21:04:58.062Z,100.00
2023-05-22T21:07:25.834Z,100.00
2023-05-22T21:09:54.808Z,100.00
2023-05-22T21:12:22.652Z,100.00
2023-05-22T21:14:50.484Z,100.00
2023-05-22T21:17:18.288Z,100.00
2023-05-22T21:19:46.150Z,100.00
2023-05-22T21:22:13.871Z,100.00
2023-05-22T21:24:41.711Z,100.00
2023-05-22T21:27:10.842Z,100.00
2023-05-22T21:29:38.606Z,100.00
2023-05-22T21:32:07.091Z,100.00
2023-05-22T21:34:35.417Z,100.00
2023-05-22T21:37:04.543Z,100.00
2023-05-22T21:39:32.431Z,100.00
2023-05-22T21:42:00.370Z,100.00
2023-05-22T21:44:29.585Z,100.00
2023-05-22T21:46:57.434Z,100.00
2023-05-22T21:49:25.321Z,100.00
2023-05-22T21:51:53.179Z,100.00
2023-05-22T21:54:20.953Z,100.00
2023-05-22T21:56:48.720Z,100.00
2023-05-22T21:59:17.874Z,100.00
2023-05-22T22:01:47.046Z,100.00
2023-05-22T22:04:14.778Z,100.00
2023-05-22T22:06:42.449Z,100.00
2023-05-22T22:09:10.185Z,100.00
2023-05-22T22:11:37.855Z,100.00
2023-05-22T22:14:07.191Z,100.00
2023-05-22T22:16:35.953Z,100.00
2023-05-22T22:19:05.790Z,100.00
2023-05-22T22:21:34.286Z,100.00
2023-05-22T22:24:02.012Z,100.00
2023-05-22T22:26:30.742Z,100.00
2023-05-22T22:28:58.462Z,100.00
2023-05-22T22:31:27.644Z,100.00
2023-05-22T22:33:55.332Z,100.00
2023-05-22T22:36:24.371Z,100.00
2023-05-22T22:38:52.093Z,100.00
2023-05-22T22:41:19.774Z,100.00
2023-05-22T22:43:47.437Z,100.00
2023-05-22T22:46:15.343Z,100.00
2023-05-22T22:48:43.611Z,100.00
2023-05-22T22:51:11.546Z,100.00
2023-05-22T22:53:40.547Z,100.00
2023-05-22T22:56:08.313Z,100.00
2023-05-22T22:58:36.454Z,100.00
2023-05-22T23:01:05.121Z,100.00
2023-05-22T23:03:33.056Z,100.00
2023-05-22T23:06:00.829Z,100.00
2023-05-22T23:08:28.559Z,100.00
2023-05-22T23:10:57.819Z,100.00
2023-05-22T23:13:25.661Z,100.00
2023-05-22T23:15:53.521Z,100.00
2023-05-22T23:18:22.281Z,100.00
2023-05-22T23:20:50.157Z,100.00
2023-05-22T23:23:18.005Z,100.00
2023-05-22T23:25:45.663Z,100.00
2023-05-22T23:28:14.968Z,100.00
2023-05-22T23:30:42.626Z,100.00
2023-05-22T23:33:10.371Z,100.00
2023-05-22T23:35:38.157Z,100.00
2023-05-22T23:38:06.043Z,100.00
2023-05-22T23:40:33.732Z,100.00
2023-05-22T23:43:01.520Z,100.00
2023-05-22T23:45:30.826Z,100.00
2023-05-22T23:48:00.992Z,100.00
2023-05-22T23:50:28.690Z,100.00
2023-05-22T23:52:56.403Z,100.00
2023-05-22T23:55:24.463Z,100.00
2023-05-22T23:57:52.205Z,100.00
